Disclaimer

Please do not use the information listed here in-flight or in-navigation, as they are not provided to us by the airports but are provided by volunteers, so they might be outdated.

Search


Regions


Airport information page

Radio informations:
VERACRUZ TWR - 118.5 MHz
Automatic Terminal Information Service (ATIS) - 127.8 MHz
VERACRUZ APP - 120.4 MHz

Airport informations:
Latitude: 19° 08' 45.35" N
Longitude: 096° 11' 14.16" W
Elevation: 90 feet - 27 meters
Operating hours: Remarks
Operating agency: Military-civil joint use airport
Timezone: UTC-6(-5DT) - First Sunday in April to the last Saturday in October
Fuel: Jet A1, without icing nhibitor.

80/87 octane gasoline, leaded, MIL-L-5572F (RED)

100/130 MIL Spec, low lead, aviation gasoline (BLUE)

Runway information:
09/27 - 4997 x 148 feet< - >1523 x 45 meters
18/36 - 7874 x 148 feet< - >2400 x 45 meters

Recent METARs:
MMVR 191640Z 00000KT 7SM SCT015TCU 28/21 A3006 RMK 8/200 HZY
MMVR 191640Z 00000KT 7SM SCT015TCU 28/21 A3006 RMK 8/200 HZY
MMVR 191746Z 00000KT 7SM SCT015 28/21 A3004 RMK SLP153 57002 906 8/100 HZY

Airport on the map: